createdAt,value
2024-01-06T00:00:08.084Z,990.31
2024-01-06T00:00:35.482Z,990.11
2024-01-06T00:00:55.191Z,990.11
2024-01-06T00:01:27.676Z,990.11
2024-01-06T00:01:58.817Z,990.11
2024-01-06T00:02:31.556Z,990.11
2024-01-06T00:03:02.868Z,990.21
2024-01-06T00:03:36.269Z,990.31
2024-01-06T00:04:07.004Z,990.31
2024-01-06T00:04:35.396Z,990.31
2024-01-06T00:04:54.930Z,990.31
2024-01-06T00:05:27.086Z,990.31
2024-01-06T00:05:43.402Z,990.21
2024-01-06T00:06:15.197Z,990.21
2024-01-06T00:06:35.383Z,990.21
2024-01-06T00:07:03.747Z,990.21
2024-01-06T00:07:35.387Z,990.31
2024-01-06T00:08:07.611Z,990.31
2024-01-06T00:08:34.603Z,990.42
2024-01-06T00:08:54.988Z,990.42
2024-01-06T00:09:26.850Z,990.42
2024-01-06T00:09:58.857Z,990.42
2024-01-06T00:10:31.225Z,990.42
2024-01-06T00:11:02.810Z,990.42
2024-01-06T00:11:34.617Z,990.42
2024-01-06T00:11:50.882Z,990.42
2024-01-06T00:12:23.686Z,990.42
2024-01-06T00:12:40.791Z,990.52
2024-01-06T00:13:10.837Z,990.52
2024-01-06T00:13:34.648Z,990.42
2024-01-06T00:13:58.807Z,990.42
2024-01-06T00:14:31.734Z,990.42
2024-01-06T00:15:03.174Z,990.31
2024-01-06T00:15:35.709Z,990.52
2024-01-06T00:16:06.941Z,990.52
2024-01-06T00:16:34.481Z,990.52
2024-01-06T00:16:54.905Z,990.52
2024-01-06T00:17:26.849Z,990.52
2024-01-06T00:17:59.713Z,990.52
2024-01-06T00:18:31.066Z,990.52
2024-01-06T00:19:03.793Z,990.52
2024-01-06T00:19:34.574Z,990.42
2024-01-06T00:19:50.877Z,990.42
2024-01-06T00:20:23.019Z,990.42
2024-01-06T00:20:39.964Z,990.62
2024-01-06T00:21:11.581Z,990.62
2024-01-06T00:21:34.516Z,990.52
2024-01-06T00:21:58.830Z,990.52
2024-01-06T00:22:30.937Z,990.52
2024-01-06T00:23:03.138Z,990.42
2024-01-06T00:23:34.366Z,990.31
2024-01-06T00:23:50.780Z,990.31
2024-01-06T00:24:23.664Z,990.31
2024-01-06T00:24:40.654Z,990.52
2024-01-06T00:25:11.010Z,990.52
2024-01-06T00:25:34.470Z,990.52
2024-01-06T00:25:59.048Z,990.52
2024-01-06T00:26:31.510Z,990.52
2024-01-06T00:27:02.809Z,990.21
2024-01-06T00:27:35.632Z,990.42
2024-01-06T00:28:06.921Z,990.42
2024-01-06T00:28:34.398Z,990.42
2024-01-06T00:28:55.142Z,990.42
2024-01-06T00:29:26.866Z,990.42
2024-01-06T00:29:59.398Z,990.42
2024-01-06T00:30:31.152Z,990.42
2024-01-06T00:31:03.746Z,990.62
2024-01-06T00:31:34.547Z,990.52
2024-01-06T00:31:50.863Z,990.52
2024-01-06T00:32:22.851Z,990.52
2024-01-06T00:32:40.135Z,990.42
2024-01-06T00:33:11.757Z,990.42
2024-01-06T00:33:34.596Z,990.52
2024-01-06T00:33:58.912Z,990.52
2024-01-06T00:34:31.040Z,990.52
2024-01-06T00:35:03.097Z,990.52
2024-01-06T00:35:34.783Z,990.62
2024-01-06T00:36:06.857Z,990.62
2024-01-06T00:36:35.939Z,990.52
2024-01-06T00:36:55.183Z,990.52
2024-01-06T00:37:27.665Z,990.52
2024-01-06T00:37:58.839Z,990.31
2024-01-06T00:38:31.619Z,990.31
2024-01-06T00:39:02.796Z,990.62
2024-01-06T00:39:37.096Z,990.62
2024-01-06T00:40:07.160Z,990.62
2024-01-06T00:40:34.813Z,990.42
2024-01-06T00:40:55.404Z,990.42
2024-01-06T00:41:26.945Z,990.42
2024-01-06T00:41:59.857Z,990.62
2024-01-06T00:42:30.865Z,990.62
2024-01-06T00:43:03.489Z,990.42
2024-01-06T00:43:34.757Z,990.31
2024-01-06T00:44:07.966Z,990.31
2024-01-06T00:44:34.620Z,990.42
2024-01-06T00:44:55.236Z,990.42
2024-01-06T00:45:27.168Z,990.42
2024-01-06T00:45:58.857Z,990.72
2024-01-06T00:46:30.862Z,990.72
2024-01-06T00:47:02.767Z,990.62
2024-01-06T00:47:34.279Z,990.52
2024-01-06T00:47:50.924Z,990.52
2024-01-06T00:48:23.759Z,990.52
2024-01-06T00:48:41.031Z,990.62
2024-01-06T00:49:10.921Z,990.62
2024-01-06T00:49:34.508Z,990.62
2024-01-06T00:49:58.834Z,990.62
2024-01-06T00:50:31.808Z,990.62
2024-01-06T00:51:02.812Z,990.52
2024-01-06T00:51:37.510Z,990.62
2024-01-06T00:52:06.851Z,990.62
2024-01-06T00:52:34.681Z,990.42
2024-01-06T00:52:54.838Z,990.42
2024-01-06T00:53:26.886Z,990.42
2024-01-06T00:53:59.497Z,990.42
2024-01-06T00:54:30.925Z,990.42
2024-01-06T00:55:04.126Z,990.52
2024-01-06T00:55:34.458Z,990.72
2024-01-06T00:55:50.988Z,990.72
2024-01-06T00:56:22.816Z,990.72
2024-01-06T00:56:39.928Z,990.31
2024-01-06T00:57:12.275Z,990.31
2024-01-06T00:57:34.673Z,990.62
2024-01-06T00:57:58.892Z,990.62
2024-01-06T00:58:30.856Z,990.62
2024-01-06T00:59:03.059Z,990.52
2024-01-06T00:59:34.366Z,990.62
2024-01-06T00:59:50.795Z,990.62
2024-01-06T01:00:24.869Z,990.62
2024-01-06T01:00:40.773Z,990.42
2024-01-06T01:01:11.261Z,990.42
2024-01-06T01:01:34.512Z,990.52
2024-01-06T01:01:58.839Z,990.52
2024-01-06T01:02:33.506Z,990.52
2024-01-06T01:03:02.828Z,990.42
2024-01-06T01:03:35.483Z,990.72
2024-01-06T01:04:06.930Z,990.72
2024-01-06T01:04:35.060Z,990.62
2024-01-06T01:04:55.021Z,990.62
2024-01-06T01:05:27.011Z,990.62
2024-01-06T01:05:59.528Z,990.62
2024-01-06T01:06:30.862Z,990.62
2024-01-06T01:07:03.714Z,990.72
2024-01-06T01:07:34.483Z,990.72
2024-01-06T01:07:51.197Z,990.72
2024-01-06T01:08:22.834Z,990.72
2024-01-06T01:08:39.965Z,990.62
2024-01-06T01:09:11.608Z,990.62
2024-01-06T01:09:34.734Z,990.52
2024-01-06T01:09:58.817Z,990.52
2024-01-06T01:10:31.008Z,990.52
2024-01-06T01:11:02.805Z,990.62
2024-01-06T01:11:34.386Z,990.52
2024-01-06T01:11:50.824Z,990.52
2024-01-06T01:12:23.629Z,990.52
2024-01-06T01:12:40.699Z,990.72
2024-01-06T01:13:10.872Z,990.72
2024-01-06T01:13:34.530Z,990.72
2024-01-06T01:13:59.033Z,990.72
2024-01-06T01:14:31.659Z,990.72
2024-01-06T01:15:03.254Z,990.62
2024-01-06T01:15:35.385Z,990.62
2024-01-06T01:16:22.897Z,990.62
2024-01-06T01:16:40.925Z,990.62
2024-01-06T01:17:10.817Z,990.62
2024-01-06T01:17:34.481Z,990.82
2024-01-06T01:17:58.832Z,990.82
2024-01-06T01:18:30.976Z,990.82
2024-01-06T01:19:03.641Z,990.62
2024-01-06T01:19:34.618Z,990.42
2024-01-06T01:19:51.140Z,990.42
2024-01-06T01:20:22.991Z,990.42
2024-01-06T01:20:39.939Z,990.72
2024-01-06T01:21:11.619Z,990.72
2024-01-06T01:21:34.466Z,990.72
2024-01-06T01:21:58.877Z,990.72
2024-01-06T01:22:30.891Z,990.72
2024-01-06T01:23:02.866Z,990.72
2024-01-06T01:23:34.839Z,990.82
2024-01-06T01:23:50.936Z,990.82
2024-01-06T01:24:23.756Z,990.82
2024-01-06T01:24:40.769Z,990.92
2024-01-06T01:25:11.896Z,990.92
2024-01-06T01:25:34.358Z,990.62
2024-01-06T01:25:58.949Z,990.62
2024-01-06T01:26:31.641Z,990.62
2024-01-06T01:27:02.896Z,990.72
2024-01-06T01:27:35.321Z,990.92
2024-01-06T01:28:06.876Z,990.92
2024-01-06T01:28:34.423Z,990.82
2024-01-06T01:28:55.032Z,990.82
2024-01-06T01:29:26.922Z,990.82
2024-01-06T01:30:32.200Z,990.62
2024-01-06T01:31:03.080Z,990.92
2024-01-06T01:31:35.375Z,990.82
2024-01-06T01:32:07.160Z,990.82
2024-01-06T01:32:34.726Z,990.72
2024-01-06T01:32:55.076Z,990.72
2024-01-06T01:33:27.055Z,990.72
2024-01-06T01:33:59.620Z,990.62
2024-01-06T01:34:31.122Z,990.62
2024-01-06T01:35:04.401Z,990.72
2024-01-06T01:35:34.457Z,990.82
2024-01-06T01:35:51.053Z,990.82
2024-01-06T01:36:22.978Z,990.82
2024-01-06T01:36:40.317Z,990.92
2024-01-06T01:37:10.873Z,990.92
2024-01-06T01:37:34.405Z,990.92
2024-01-06T01:37:59.481Z,990.92
2024-01-06T01:38:30.903Z,990.92
2024-01-06T01:39:03.590Z,991.02
2024-01-06T01:39:34.525Z,990.82
2024-01-06T01:39:50.799Z,990.82
2024-01-06T01:40:23.023Z,990.82
2024-01-06T01:40:40.165Z,990.82
2024-01-06T01:41:11.493Z,990.82
2024-01-06T01:41:34.393Z,991.02
2024-01-06T01:41:58.870Z,991.02
2024-01-06T01:42:30.841Z,991.02
2024-01-06T01:43:02.781Z,991.02
2024-01-06T01:43:34.472Z,990.82
2024-01-06T01:44:08.039Z,990.82
2024-01-06T01:44:35.929Z,991.02
2024-01-06T01:44:54.950Z,991.02
2024-01-06T01:45:27.301Z,991.02
2024-01-06T01:45:58.981Z,991.02
2024-01-06T01:46:30.863Z,991.02
2024-01-06T01:47:02.819Z,990.92
2024-01-06T01:47:34.469Z,991.02
2024-01-06T01:47:51.827Z,991.02
2024-01-06T01:48:22.985Z,991.02
2024-01-06T01:48:40.236Z,991.02
2024-01-06T01:49:11.255Z,991.02
2024-01-06T01:49:36.360Z,991.02
2024-01-06T01:49:59.711Z,991.02
2024-01-06T01:50:31.697Z,991.02
2024-01-06T01:51:03.761Z,991.13
2024-01-06T01:51:34.580Z,991.13
2024-01-06T01:51:50.963Z,991.13
2024-01-06T01:52:23.045Z,991.13
2024-01-06T01:52:39.966Z,991.13
2024-01-06T01:53:11.504Z,991.13
2024-01-06T01:53:35.071Z,991.13
2024-01-06T01:53:58.847Z,991.13
2024-01-06T01:54:30.892Z,991.13
2024-01-06T01:55:03.043Z,991.02
2024-01-06T01:55:34.462Z,991.02
2024-01-06T01:55:51.030Z,991.02
2024-01-06T01:56:24.302Z,991.02
2024-01-06T01:56:41.412Z,990.72
2024-01-06T01:57:10.945Z,990.72
2024-01-06T01:57:34.462Z,991.33
2024-01-06T01:57:58.959Z,991.33
2024-01-06T01:58:32.524Z,991.33
2024-01-06T01:59:02.723Z,991.13
2024-01-06T01:59:35.326Z,991.13
2024-01-06T02:00:07.445Z,991.13
2024-01-06T02:00:34.488Z,991.23
2024-01-06T02:00:55.321Z,991.23
2024-01-06T02:01:26.914Z,991.23
2024-01-06T02:01:59.527Z,991.23
2024-01-06T02:02:34.697Z,991.13
2024-01-06T02:03:03.640Z,991.13
2024-01-06T02:03:34.550Z,991.33
2024-01-06T02:03:50.977Z,991.33
2024-01-06T02:04:22.864Z,991.33
2024-01-06T02:04:40.001Z,991.23
2024-01-06T02:05:12.196Z,991.23
2024-01-06T02:05:34.471Z,991.23
2024-01-06T02:05:59.024Z,991.23
2024-01-06T02:06:30.864Z,991.23
2024-01-06T02:07:02.938Z,991.23
2024-01-06T02:07:34.990Z,991.13
2024-01-06T02:08:06.856Z,991.13
2024-01-06T02:08:35.434Z,991.23
2024-01-06T02:08:55.490Z,991.23
2024-01-06T02:09:27.610Z,991.23
2024-01-06T02:09:58.807Z,991.13
2024-01-06T02:10:31.857Z,991.13
2024-01-06T02:11:02.806Z,991.13
2024-01-06T02:11:35.204Z,991.13
2024-01-06T02:12:06.929Z,991.13
2024-01-06T02:12:34.464Z,991.13
2024-01-06T02:12:55.696Z,991.13
2024-01-06T02:13:26.957Z,991.13
2024-01-06T02:13:59.569Z,991.23
2024-01-06T02:14:30.837Z,991.23
2024-01-06T02:15:04.602Z,991.23
2024-01-06T02:15:34.804Z,991.23
2024-01-06T02:15:51.100Z,991.23
2024-01-06T02:16:22.853Z,991.23
2024-01-06T02:16:39.915Z,991.23
2024-01-06T02:17:11.798Z,991.23
2024-01-06T02:17:34.551Z,991.13
2024-01-06T02:17:58.934Z,991.13
2024-01-06T02:18:30.965Z,991.13
2024-01-06T02:19:03.021Z,991.33
2024-01-06T02:19:34.479Z,991.23
2024-01-06T02:19:51.068Z,991.23
2024-01-06T02:20:23.824Z,991.23
2024-01-06T02:20:40.656Z,991.53
2024-01-06T02:21:11.133Z,991.53
2024-01-06T02:21:34.367Z,991.23
2024-01-06T02:21:58.894Z,991.23
2024-01-06T02:22:31.712Z,991.23
2024-01-06T02:23:02.830Z,991.23
2024-01-06T02:23:35.248Z,991.02
2024-01-06T02:24:07.160Z,991.02
2024-01-06T02:24:35.365Z,991.13
2024-01-06T02:24:54.857Z,991.13
2024-01-06T02:25:26.989Z,991.13
2024-01-06T02:25:59.643Z,991.23
2024-01-06T02:26:30.851Z,991.23
2024-01-06T02:27:03.525Z,991.33
2024-01-06T02:27:34.473Z,991.23
2024-01-06T02:27:50.887Z,991.23
2024-01-06T02:28:22.846Z,991.23
2024-01-06T02:28:39.895Z,991.02
2024-01-06T02:29:11.620Z,991.02
2024-01-06T02:29:34.412Z,991.13
2024-01-06T02:29:58.897Z,991.13
2024-01-06T02:30:31.152Z,991.13
2024-01-06T02:31:02.927Z,991.33
2024-01-06T02:31:34.454Z,991.53
2024-01-06T02:31:50.933Z,991.53
2024-01-06T02:32:23.620Z,991.53
2024-01-06T02:32:40.783Z,991.23
2024-01-06T02:33:10.964Z,991.23
2024-01-06T02:33:34.827Z,991.43
2024-01-06T02:33:58.939Z,991.43
2024-01-06T02:34:31.597Z,991.43
2024-01-06T02:35:03.198Z,991.33
2024-01-06T02:35:37.145Z,991.33
2024-01-06T02:36:08.065Z,991.33
2024-01-06T02:36:34.860Z,991.23
2024-01-06T02:36:54.971Z,991.23
2024-01-06T02:37:26.837Z,991.23
2024-01-06T02:37:59.506Z,991.33
2024-01-06T02:38:30.808Z,991.33
2024-01-06T02:39:03.700Z,991.23
2024-01-06T02:39:34.565Z,991.63
2024-01-06T02:39:50.915Z,991.63
2024-01-06T02:40:23.780Z,991.63
2024-01-06T02:40:39.955Z,991.33
2024-01-06T02:41:11.537Z,991.33
2024-01-06T02:41:35.141Z,991.33
2024-01-06T02:41:58.831Z,991.33
2024-01-06T02:42:30.882Z,991.33
2024-01-06T02:43:03.024Z,991.43
2024-01-06T02:43:34.398Z,991.53
2024-01-06T02:43:50.880Z,991.53
2024-01-06T02:44:23.898Z,991.53
2024-01-06T02:44:40.744Z,991.63
2024-01-06T02:45:11.375Z,991.63
2024-01-06T02:45:34.968Z,991.63
2024-01-06T02:45:59.255Z,991.63
2024-01-06T02:46:31.495Z,991.63
2024-01-06T02:47:02.797Z,991.43
2024-01-06T02:47:35.367Z,991.53
2024-01-06T02:48:07.215Z,991.53
2024-01-06T02:48:34.791Z,991.74
2024-01-06T02:48:55.133Z,991.74
2024-01-06T02:49:26.864Z,991.74
2024-01-06T02:49:59.745Z,991.63
2024-01-06T02:50:31.072Z,991.63
2024-01-06T02:51:04.132Z,991.63
2024-01-06T02:51:34.463Z,991.74
2024-01-06T02:51:50.993Z,991.74
2024-01-06T02:52:22.871Z,991.74
2024-01-06T02:52:39.906Z,991.74
2024-01-06T02:53:11.529Z,991.74
2024-01-06T02:53:34.484Z,991.63
2024-01-06T02:53:58.865Z,991.63
2024-01-06T02:54:31.017Z,991.63
2024-01-06T02:55:03.265Z,991.63
2024-01-06T02:55:34.380Z,991.53
2024-01-06T02:55:51.091Z,991.53
2024-01-06T02:56:23.713Z,991.53
2024-01-06T02:56:40.709Z,991.63
2024-01-06T02:57:10.912Z,991.63
2024-01-06T02:57:34.484Z,991.63
2024-01-06T02:57:58.893Z,991.63
2024-01-06T02:58:31.624Z,991.63
2024-01-06T02:59:02.852Z,991.74
2024-01-06T02:59:35.486Z,991.53
2024-01-06T03:00:07.591Z,991.53
2024-01-06T03:00:34.865Z,991.53
2024-01-06T03:00:55.249Z,991.53
2024-01-06T03:01:26.945Z,991.53
2024-01-06T03:01:59.445Z,991.63
2024-01-06T03:02:30.829Z,991.63
2024-01-06T03:03:03.713Z,991.63
2024-01-06T03:03:34.786Z,991.84
2024-01-06T03:03:51.008Z,991.84
2024-01-06T03:04:22.896Z,991.84
2024-01-06T03:04:39.939Z,991.53
2024-01-06T03:05:11.886Z,991.53
2024-01-06T03:05:34.618Z,991.63
2024-01-06T03:05:59.429Z,991.63
2024-01-06T03:06:30.873Z,991.63
2024-01-06T03:07:02.837Z,991.63
2024-01-06T03:07:34.718Z,991.63
2024-01-06T03:07:51.140Z,991.63
2024-01-06T03:08:23.697Z,991.63
2024-01-06T03:08:40.846Z,991.63
2024-01-06T03:09:11.080Z,991.63
2024-01-06T03:09:36.059Z,991.53
2024-01-06T03:09:59.072Z,991.53
2024-01-06T03:10:32.984Z,991.53
2024-01-06T03:11:02.900Z,991.63
2024-01-06T03:11:36.514Z,991.63
2024-01-06T03:12:06.955Z,991.63
2024-01-06T03:12:34.862Z,991.63
2024-01-06T03:12:55.088Z,991.63
2024-01-06T03:13:26.925Z,991.63
2024-01-06T03:13:59.586Z,991.74
2024-01-06T03:14:30.935Z,991.74
2024-01-06T03:15:04.688Z,991.74
2024-01-06T03:15:34.631Z,991.84
2024-01-06T03:15:51.250Z,991.84
2024-01-06T03:16:22.925Z,991.84
2024-01-06T03:16:39.984Z,991.74
2024-01-06T03:17:11.826Z,991.74
2024-01-06T03:17:34.623Z,991.74
2024-01-06T03:17:59.028Z,991.74
2024-01-06T03:18:31.025Z,991.74
2024-01-06T03:19:03.210Z,991.94
2024-01-06T03:19:34.633Z,991.84
2024-01-06T03:19:51.306Z,991.84
2024-01-06T03:20:23.889Z,991.84
2024-01-06T03:20:40.821Z,991.74
2024-01-06T03:21:10.885Z,991.74
2024-01-06T03:21:34.479Z,991.94
2024-01-06T03:21:58.959Z,991.94
2024-01-06T03:22:31.544Z,991.94
2024-01-06T03:23:02.896Z,991.84
2024-01-06T03:23:35.924Z,991.84
2024-01-06T03:24:06.986Z,991.84
2024-01-06T03:24:34.635Z,991.84
2024-01-06T03:24:55.045Z,991.84
2024-01-06T03:25:27.085Z,991.84
2024-01-06T03:25:59.762Z,991.84
2024-01-06T03:26:30.876Z,991.84
2024-01-06T03:27:03.866Z,991.94
2024-01-06T03:27:34.832Z,992.04
2024-01-06T03:28:07.647Z,992.04
2024-01-06T03:28:34.576Z,991.94
2024-01-06T03:28:55.034Z,991.94
2024-01-06T03:29:27.726Z,991.94
2024-01-06T03:29:58.948Z,992.11
2024-01-06T03:30:31.202Z,992.11
2024-01-06T03:31:03.009Z,991.94
2024-01-06T03:31:34.690Z,991.94
2024-01-06T03:31:51.152Z,991.94
2024-01-06T03:32:23.686Z,991.94
2024-01-06T03:32:40.801Z,992.11
2024-01-06T03:33:11.045Z,992.11
2024-01-06T03:33:34.503Z,991.94
2024-01-06T03:33:59.104Z,991.94
2024-01-06T03:34:31.870Z,991.94
2024-01-06T03:35:03.219Z,992.11
2024-01-06T03:35:35.270Z,991.94
2024-01-06T03:36:07.573Z,991.94
2024-01-06T03:36:34.834Z,992.11
2024-01-06T03:36:54.991Z,992.11
2024-01-06T03:37:26.968Z,992.11
2024-01-06T03:38:15.978Z,992.21
2024-01-06T03:38:34.582Z,992.11
2024-01-06T03:39:02.989Z,992.11
2024-01-06T03:39:34.500Z,991.94
2024-01-06T03:39:50.971Z,991.94
2024-01-06T03:40:23.835Z,991.94
2024-01-06T03:40:40.653Z,992.11
2024-01-06T03:41:10.894Z,992.11
2024-01-06T03:41:35.005Z,992.11
2024-01-06T03:41:58.869Z,992.11
2024-01-06T03:42:31.559Z,992.11
2024-01-06T03:43:02.838Z,991.94
2024-01-06T03:43:36.195Z,992.11
2024-01-06T03:44:07.226Z,992.11
2024-01-06T03:44:34.440Z,992.21
2024-01-06T03:44:55.021Z,992.21
2024-01-06T03:45:27.283Z,992.21
2024-01-06T03:45:59.668Z,992.21
2024-01-06T03:46:31.370Z,992.21
2024-01-06T03:47:03.548Z,992.11
2024-01-06T03:47:34.470Z,992.04
2024-01-06T03:47:51.165Z,992.04
2024-01-06T03:48:22.992Z,992.04
2024-01-06T03:48:40.253Z,992.11
2024-01-06T03:49:11.704Z,992.11
2024-01-06T03:49:35.187Z,991.94
2024-01-06T03:49:58.963Z,991.94
2024-01-06T03:50:31.092Z,991.94
2024-01-06T03:51:03.072Z,992.21
2024-01-06T03:51:34.600Z,992.11
2024-01-06T03:51:51.026Z,992.11
2024-01-06T03:52:23.805Z,992.11
2024-01-06T03:52:40.700Z,992.04
2024-01-06T03:53:10.862Z,992.04
2024-01-06T03:53:34.855Z,992.31
2024-01-06T03:53:58.885Z,992.31
2024-01-06T03:54:31.542Z,992.31
2024-01-06T03:55:03.193Z,992.31
2024-01-06T03:55:35.460Z,992.31
2024-01-06T03:56:06.974Z,992.31
2024-01-06T03:56:34.960Z,992.21
2024-01-06T03:56:55.098Z,992.21
2024-01-06T03:57:26.881Z,992.21
2024-01-06T03:57:59.525Z,992.11
2024-01-06T03:58:31.867Z,992.11
2024-01-06T03:59:03.631Z,992.11
2024-01-06T03:59:34.482Z,992.31
2024-01-06T03:59:50.895Z,992.31
2024-01-06T04:00:23.560Z,992.31
2024-01-06T04:00:40.081Z,992.21
2024-01-06T04:01:11.699Z,992.21
2024-01-06T04:01:34.569Z,992.21
2024-01-06T04:01:58.859Z,992.21
2024-01-06T04:02:30.960Z,992.21
2024-01-06T04:03:02.839Z,992.31
2024-01-06T04:03:34.536Z,992.31
2024-01-06T04:03:50.895Z,992.31
2024-01-06T04:04:23.695Z,992.31
2024-01-06T04:04:40.903Z,992.41
2024-01-06T04:05:11.334Z,992.41
2024-01-06T04:05:34.374Z,992.21
2024-01-06T04:05:59.210Z,992.21
2024-01-06T04:06:31.595Z,992.21
2024-01-06T04:07:02.812Z,992.21
2024-01-06T04:07:35.069Z,992.21
2024-01-06T04:08:06.885Z,992.21
2024-01-06T04:08:34.444Z,992.51
2024-01-06T04:08:54.987Z,992.51
2024-01-06T04:09:26.910Z,992.51
2024-01-06T04:09:59.710Z,992.31
2024-01-06T04:10:31.106Z,992.31
2024-01-06T04:11:03.643Z,992.21
2024-01-06T04:11:34.501Z,992.31
2024-01-06T04:11:50.958Z,992.31
2024-01-06T04:12:22.908Z,992.31
2024-01-06T04:12:40.010Z,992.21
2024-01-06T04:13:11.569Z,992.21
2024-01-06T04:13:34.503Z,992.31
2024-01-06T04:13:58.921Z,992.31
2024-01-06T04:14:30.890Z,992.31
2024-01-06T04:15:03.945Z,992.31
2024-01-06T04:15:34.650Z,992.31
2024-01-06T04:15:51.236Z,992.31
2024-01-06T04:16:23.622Z,992.31
2024-01-06T04:16:40.696Z,992.31
2024-01-06T04:17:10.931Z,992.31
2024-01-06T04:17:34.573Z,992.41
2024-01-06T04:17:58.977Z,992.41
2024-01-06T04:18:31.795Z,992.41
2024-01-06T04:19:03.154Z,992.51
2024-01-06T04:19:35.283Z,992.21
2024-01-06T04:20:07.096Z,992.21
2024-01-06T04:20:34.487Z,992.31
2024-01-06T04:20:55.171Z,992.31
2024-01-06T04:21:26.880Z,992.31
2024-01-06T04:21:59.521Z,992.41
2024-01-06T04:22:30.817Z,992.41
2024-01-06T04:23:03.519Z,992.31
2024-01-06T04:23:34.717Z,992.51
2024-01-06T04:23:51.022Z,992.51
2024-01-06T04:24:22.887Z,992.51
2024-01-06T04:24:39.979Z,992.31
2024-01-06T04:25:11.804Z,992.31
2024-01-06T04:25:34.440Z,992.31
2024-01-06T04:25:59.144Z,992.31
2024-01-06T04:26:30.916Z,992.31
2024-01-06T04:27:02.875Z,992.41
2024-01-06T04:27:34.526Z,992.31
2024-01-06T04:27:50.842Z,992.31
2024-01-06T04:28:23.625Z,992.31
2024-01-06T04:28:40.713Z,992.21
2024-01-06T04:29:10.870Z,992.21
2024-01-06T04:29:34.577Z,992.41
2024-01-06T04:29:58.942Z,992.41
2024-01-06T04:30:32.091Z,992.41
2024-01-06T04:31:03.007Z,992.41
2024-01-06T04:31:36.383Z,992.41
2024-01-06T04:32:06.916Z,992.41
2024-01-06T04:32:34.626Z,992.31
2024-01-06T04:32:54.928Z,992.31
2024-01-06T04:33:27.281Z,992.31
2024-01-06T04:34:00.174Z,992.41
2024-01-06T04:34:30.919Z,992.41
2024-01-06T04:35:04.102Z,992.41
2024-01-06T04:35:35.085Z,992.31
2024-01-06T04:35:51.021Z,992.31
2024-01-06T04:36:22.977Z,992.31
2024-01-06T04:36:40.054Z,992.51
2024-01-06T04:37:11.834Z,992.51
2024-01-06T04:37:34.473Z,992.51
2024-01-06T04:37:59.427Z,992.51
2024-01-06T04:38:31.540Z,992.51
2024-01-06T04:39:02.865Z,992.51
2024-01-06T04:39:37.721Z,992.41
2024-01-06T04:40:07.731Z,992.41
2024-01-06T04:40:34.472Z,992.41
2024-01-06T04:40:55.121Z,992.41
2024-01-06T04:41:26.878Z,992.41
2024-01-06T04:42:00.593Z,992.31
2024-01-06T04:42:30.904Z,992.31
2024-01-06T04:43:03.670Z,992.51
2024-01-06T04:43:34.642Z,992.41
2024-01-06T04:44:07.822Z,992.41
2024-01-06T04:44:34.535Z,992.62
2024-01-06T04:44:54.951Z,992.62
2024-01-06T04:45:27.171Z,992.62
2024-01-06T04:45:59.177Z,992.62
2024-01-06T04:46:30.888Z,992.62
2024-01-06T04:47:02.901Z,992.51
2024-01-06T04:47:34.889Z,992.41
2024-01-06T04:48:07.091Z,992.41
2024-01-06T04:48:34.518Z,992.41
2024-01-06T04:48:55.026Z,992.41
2024-01-06T04:49:27.698Z,992.41
2024-01-06T04:49:58.994Z,992.41
2024-01-06T04:50:31.821Z,992.41
2024-01-06T04:51:02.883Z,992.51
2024-01-06T04:51:35.206Z,992.41
2024-01-06T04:52:06.948Z,992.41
2024-01-06T04:52:34.522Z,992.51
2024-01-06T04:52:54.920Z,992.51
2024-01-06T04:53:26.843Z,992.51
2024-01-06T04:53:59.495Z,992.51
2024-01-06T04:54:30.920Z,992.51
2024-01-06T04:55:05.036Z,992.51
2024-01-06T04:55:34.931Z,992.62
2024-01-06T04:55:51.095Z,992.62
2024-01-06T04:56:22.880Z,992.62
2024-01-06T04:56:40.032Z,992.72
2024-01-06T04:57:11.638Z,992.72
2024-01-06T04:57:34.500Z,992.51
2024-01-06T04:57:58.964Z,992.51
2024-01-06T04:58:30.878Z,992.51
2024-01-06T04:59:02.905Z,992.62
2024-01-06T04:59:34.467Z,992.51
2024-01-06T04:59:50.829Z,992.51
2024-01-06T05:00:24.187Z,992.51
2024-01-06T05:00:40.900Z,992.51
2024-01-06T05:01:11.034Z,992.51
2024-01-06T05:01:34.444Z,992.51
2024-01-06T05:01:58.966Z,992.51
2024-01-06T05:02:31.525Z,992.51
2024-01-06T05:03:02.895Z,992.72
2024-01-06T05:03:36.654Z,992.72
2024-01-06T05:04:07.167Z,992.72
2024-01-06T05:04:34.423Z,992.62
2024-01-06T05:04:55.151Z,992.62
2024-01-06T05:05:27.123Z,992.62
2024-01-06T05:05:59.638Z,992.62
2024-01-06T05:06:30.923Z,992.62
2024-01-06T05:07:03.662Z,992.62
2024-01-06T05:07:34.484Z,992.51
2024-01-06T05:07:51.147Z,992.51
2024-01-06T05:08:22.999Z,992.51
2024-01-06T05:08:39.971Z,992.51
2024-01-06T05:09:11.503Z,992.51
2024-01-06T05:09:34.453Z,992.51
2024-01-06T05:09:58.957Z,992.51
2024-01-06T05:10:31.048Z,992.51
2024-01-06T05:11:02.889Z,992.51
2024-01-06T05:11:34.698Z,992.62
2024-01-06T05:11:50.867Z,992.62
2024-01-06T05:12:23.685Z,992.62
2024-01-06T05:12:40.743Z,992.62
2024-01-06T05:13:10.895Z,992.62
2024-01-06T05:13:34.383Z,992.92
2024-01-06T05:13:59.237Z,992.92
2024-01-06T05:14:31.760Z,992.92
2024-01-06T05:15:03.553Z,992.82
2024-01-06T05:15:35.517Z,992.62
2024-01-06T05:16:07.091Z,992.62
2024-01-06T05:16:34.769Z,992.82
2024-01-06T05:16:54.987Z,992.82
2024-01-06T05:17:26.863Z,992.82
2024-01-06T05:17:59.636Z,992.72
2024-01-06T05:18:30.991Z,992.72
2024-01-06T05:19:04.065Z,992.92
2024-01-06T05:19:34.635Z,992.82
2024-01-06T05:19:50.962Z,992.82
2024-01-06T05:20:23.121Z,992.82
2024-01-06T05:20:39.983Z,992.72
2024-01-06T05:21:11.661Z,992.72
2024-01-06T05:21:34.427Z,992.82
2024-01-06T05:21:59.035Z,992.82
2024-01-06T05:22:30.923Z,992.82
2024-01-06T05:23:03.053Z,992.82
2024-01-06T05:23:35.325Z,992.72
2024-01-06T05:24:06.887Z,992.72
2024-01-06T05:24:35.270Z,993.02
2024-01-06T05:24:55.370Z,993.02
2024-01-06T05:25:27.007Z,993.02
2024-01-06T05:25:58.901Z,992.82
2024-01-06T05:26:30.881Z,992.82
2024-01-06T05:27:02.923Z,992.92
2024-01-06T05:27:34.540Z,992.82
2024-01-06T05:27:51.642Z,992.82
2024-01-06T05:28:22.912Z,992.82
2024-01-06T05:28:40.090Z,992.82
2024-01-06T05:29:10.906Z,992.82
2024-01-06T05:29:34.512Z,992.92
2024-01-06T05:29:59.565Z,992.92
2024-01-06T05:30:31.334Z,992.92
2024-01-06T05:31:04.224Z,992.82
2024-01-06T05:31:34.555Z,992.82
2024-01-06T05:31:51.006Z,992.82
2024-01-06T05:32:23.061Z,992.82
2024-01-06T05:32:39.968Z,993.02
2024-01-06T05:33:14.406Z,993.02
2024-01-06T05:33:34.796Z,993.02
2024-01-06T05:33:59.102Z,993.02
2024-01-06T05:34:30.932Z,993.02
2024-01-06T05:35:03.595Z,992.92
2024-01-06T05:35:34.455Z,992.92
2024-01-06T05:35:51.458Z,992.92
2024-01-06T05:36:23.728Z,992.92
2024-01-06T05:36:40.793Z,992.92
2024-01-06T05:37:10.959Z,992.92
2024-01-06T05:37:34.907Z,992.92
2024-01-06T05:37:59.036Z,992.92
2024-01-06T05:38:31.706Z,992.92
2024-01-06T05:39:02.916Z,993.23
2024-01-06T05:39:35.604Z,992.92
2024-01-06T05:40:07.169Z,992.92
2024-01-06T05:40:34.541Z,992.92
2024-01-06T05:40:55.122Z,992.92
2024-01-06T05:41:26.850Z,992.92
2024-01-06T05:41:59.601Z,993.23
2024-01-06T05:42:30.983Z,993.23
2024-01-06T05:43:03.581Z,993.02
2024-01-06T05:43:34.601Z,993.33
2024-01-06T05:43:50.899Z,993.33
2024-01-06T05:44:23.037Z,993.33
2024-01-06T05:44:39.971Z,993.12
2024-01-06T05:45:11.974Z,993.12
2024-01-06T05:45:34.697Z,993.12
2024-01-06T05:45:59.233Z,993.12
2024-01-06T05:46:30.876Z,993.12
2024-01-06T05:47:02.973Z,993.12
2024-01-06T05:47:34.830Z,993.02
2024-01-06T05:48:07.320Z,993.02
2024-01-06T05:48:34.968Z,993.12
2024-01-06T05:48:55.234Z,993.12
2024-01-06T05:49:27.705Z,993.12